createdAt,value
2022-08-03T00:01:49.111Z,101509.66
2022-08-03T00:04:15.648Z,101512.25
2022-08-03T00:06:42.484Z,101511.78
2022-08-03T00:09:09.327Z,101510.13
2022-08-03T00:11:37.642Z,101505.84
2022-08-03T00:14:05.996Z,101512.38
2022-08-03T00:16:32.605Z,101507.72
2022-08-03T00:19:00.749Z,101512.94
2022-08-03T00:21:28.352Z,101513.19
2022-08-03T00:23:54.883Z,101512.22
2022-08-03T00:26:21.933Z,101501.59
2022-08-03T00:28:49.474Z,101509.53
2022-08-03T00:31:16.236Z,101494.44
2022-08-03T00:33:58.959Z,101500.56
2022-08-03T00:36:27.730Z,101499.19
2022-08-03T00:38:54.875Z,101498.16
2022-08-03T00:41:21.412Z,101501.59
2022-08-03T00:43:48.237Z,101498.09
2022-08-03T00:46:20.566Z,101505.47
2022-08-03T00:48:51.081Z,101501.56
2022-08-03T00:51:19.834Z,101493.72
2022-08-03T00:53:46.472Z,101486.94
2022-08-03T00:56:15.206Z,101495.13
2022-08-03T00:58:44.400Z,101496.75
2022-08-03T01:01:12.310Z,101489.09
2022-08-03T01:03:39.158Z,101483.75
2022-08-03T01:06:33.870Z,101488.78
2022-08-03T01:09:09.105Z,101487.75
2022-08-03T01:12:00.299Z,101485.06
2022-08-03T01:14:34.285Z,101488.41
2022-08-03T01:17:29.157Z,101481.25
2022-08-03T01:20:14.915Z,101478.88
2022-08-03T01:23:10.639Z,101479.31
2022-08-03T01:26:10.519Z,101474.34
2022-08-03T01:29:16.529Z,101477.16
2022-08-03T01:32:53.494Z,101483.28
2022-08-03T01:34:43.579Z,101482.44
2022-08-03T01:37:12.458Z,101468.44
2022-08-03T01:39:41.435Z,101483.19
2022-08-03T01:42:11.481Z,101481.22
2022-08-03T01:44:41.490Z,101470.22
2022-08-03T01:47:10.655Z,101474.63
2022-08-03T01:49:40.647Z,101468.00
2022-08-03T01:52:08.860Z,101470.75
2022-08-03T01:54:44.137Z,101474.47
2022-08-03T01:57:11.644Z,101461.25
2022-08-03T01:59:40.040Z,101460.41
2022-08-03T02:02:28.351Z,101470.94
2022-08-03T02:04:57.553Z,101464.88
2022-08-03T02:07:25.819Z,101467.81
2022-08-03T02:09:54.260Z,101466.44
2022-08-03T02:12:23.923Z,101469.28
2022-08-03T02:14:51.704Z,101462.69
2022-08-03T02:17:39.070Z,101471.34
2022-08-03T02:20:08.407Z,101468.06
2022-08-03T02:22:35.922Z,101466.72
2022-08-03T02:25:02.549Z,101459.97
2022-08-03T02:27:31.309Z,101459.38
2022-08-03T02:30:10.001Z,101467.00
2022-08-03T02:32:40.170Z,101459.56
2022-08-03T02:35:12.570Z,101452.75
2022-08-03T02:37:49.820Z,101458.66
2022-08-03T02:40:20.240Z,101453.59
2022-08-03T02:42:49.322Z,101455.44
2022-08-03T02:45:18.249Z,101458.56
2022-08-03T02:47:53.178Z,101451.13
2022-08-03T02:50:21.881Z,101449.47
2022-08-03T02:52:49.817Z,101449.25
2022-08-03T02:55:19.568Z,101445.50
2022-08-03T02:57:47.357Z,101446.06
2022-08-03T03:00:27.695Z,101451.09
2022-08-03T03:02:58.891Z,101449.75
2022-08-03T03:05:55.966Z,101448.09
2022-08-03T03:08:17.623Z,101452.03
2022-08-03T03:10:46.210Z,101446.75
2022-08-03T03:13:15.080Z,101447.88
2022-08-03T03:15:43.438Z,101451.91
2022-08-03T03:18:11.175Z,101450.03
2022-08-03T03:20:40.778Z,101445.50
2022-08-03T03:23:08.924Z,101458.41
2022-08-03T03:25:36.125Z,101453.56
2022-08-03T03:28:03.822Z,101454.31
2022-08-03T03:30:34.126Z,101449.88
2022-08-03T03:33:00.818Z,101449.38
2022-08-03T03:35:27.930Z,101445.75
2022-08-03T03:37:55.136Z,101444.28
2022-08-03T03:40:22.531Z,101440.38
2022-08-03T03:42:50.322Z,101444.28
2022-08-03T03:45:17.764Z,101439.94
2022-08-03T03:47:44.384Z,101435.81
2022-08-03T03:50:11.084Z,101441.44
2022-08-03T03:52:37.684Z,101435.88
2022-08-03T03:55:04.477Z,101445.31
2022-08-03T03:57:31.001Z,101440.19
2022-08-03T03:59:57.740Z,101437.97
2022-08-03T04:02:24.481Z,101441.28
2022-08-03T04:05:09.969Z,101434.41
2022-08-03T04:08:14.564Z,101446.09
2022-08-03T04:10:58.531Z,101438.84
2022-08-03T04:13:30.933Z,101435.09
2022-08-03T04:15:58.862Z,101441.66
2022-08-03T04:18:27.970Z,101440.75
2022-08-03T04:21:01.462Z,101446.00
2022-08-03T04:23:30.740Z,101440.69
2022-08-03T04:25:59.251Z,101436.56
2022-08-03T04:28:30.854Z,101444.22
2022-08-03T04:31:01.136Z,101437.28
2022-08-03T04:33:32.471Z,101439.56
2022-08-03T04:36:02.959Z,101439.97
2022-08-03T04:38:32.698Z,101446.25
2022-08-03T04:41:00.599Z,101446.03
2022-08-03T04:43:28.128Z,101443.78
2022-08-03T04:45:55.713Z,101451.53
2022-08-03T04:48:22.548Z,101451.97
2022-08-03T04:50:49.143Z,101455.44
2022-08-03T04:53:16.414Z,101464.69
2022-08-03T04:55:42.999Z,101461.06
2022-08-03T04:58:09.600Z,101455.44
2022-08-03T05:00:36.091Z,101466.94
2022-08-03T05:03:02.744Z,101468.72
2022-08-03T05:05:48.962Z,101473.41
2022-08-03T05:08:16.089Z,101471.72
2022-08-03T05:10:47.363Z,101466.31
2022-08-03T05:13:14.515Z,101468.00
2022-08-03T05:15:43.131Z,101472.41
2022-08-03T05:18:13.938Z,101478.28
2022-08-03T05:20:41.071Z,101478.09
2022-08-03T05:23:07.647Z,101476.44
2022-08-03T05:25:34.211Z,101471.72
2022-08-03T05:28:00.753Z,101481.59
2022-08-03T05:30:33.967Z,101478.34
2022-08-03T05:33:02.389Z,101483.25
2022-08-03T05:36:00.849Z,101486.03
2022-08-03T05:38:23.993Z,101494.38
2022-08-03T05:40:57.602Z,101497.22
2022-08-03T05:43:43.171Z,101498.59
2022-08-03T05:46:12.425Z,101495.94
2022-08-03T05:48:39.971Z,101490.84
2022-08-03T05:51:11.023Z,101495.94
2022-08-03T05:53:42.592Z,101497.00
2022-08-03T05:56:14.018Z,101488.75
2022-08-03T05:58:44.061Z,101497.00
2022-08-03T06:01:10.614Z,101495.38
2022-08-03T06:03:37.177Z,101496.78
2022-08-03T06:06:03.740Z,101497.00
2022-08-03T06:08:30.285Z,101489.47
2022-08-03T06:10:56.799Z,101491.44
2022-08-03T06:13:23.313Z,101499.66
2022-08-03T06:15:49.833Z,101491.19
2022-08-03T06:18:16.388Z,101495.13
2022-08-03T06:20:42.959Z,101495.13
2022-08-03T06:23:09.507Z,101496.25
2022-08-03T06:25:43.185Z,101496.06
2022-08-03T06:28:15.085Z,101494.44
2022-08-03T06:30:46.741Z,101503.31
2022-08-03T06:33:16.727Z,101496.75
2022-08-03T06:35:43.235Z,101497.66
2022-08-03T06:38:12.894Z,101497.34
2022-08-03T06:40:42.097Z,101505.63
2022-08-03T06:43:12.592Z,101497.06
2022-08-03T06:45:39.421Z,101505.00
2022-08-03T06:48:07.359Z,101510.78
2022-08-03T06:50:35.442Z,101510.09
2022-08-03T06:53:02.299Z,101507.53
2022-08-03T06:55:28.881Z,101517.88
2022-08-03T06:57:55.888Z,101509.81
2022-08-03T07:00:28.073Z,101508.16
2022-08-03T07:02:58.060Z,101514.03
2022-08-03T07:05:25.209Z,101506.19
2022-08-03T07:07:55.656Z,101522.25
2022-08-03T07:10:22.169Z,101514.47
2022-08-03T07:12:56.006Z,101513.28
2022-08-03T07:15:55.633Z,101520.09
2022-08-03T07:18:09.995Z,101530.94
2022-08-03T07:20:36.667Z,101516.06
2022-08-03T07:23:03.221Z,101524.47
2022-08-03T07:25:29.716Z,101526.44
2022-08-03T07:27:56.347Z,101519.63
2022-08-03T07:30:23.479Z,101534.50
2022-08-03T07:32:50.618Z,101525.81
2022-08-03T07:35:24.755Z,101537.09
2022-08-03T07:37:54.555Z,101529.28
2022-08-03T07:40:22.803Z,101535.97
2022-08-03T07:42:52.171Z,101523.91
2022-08-03T07:45:23.207Z,101531.66
2022-08-03T07:47:53.494Z,101531.13
2022-08-03T07:50:21.117Z,101520.50
2022-08-03T07:52:47.876Z,101523.28
2022-08-03T07:55:15.107Z,101515.56
2022-08-03T07:57:41.658Z,101520.75
2022-08-03T08:00:15.899Z,101518.38
2022-08-03T08:02:43.257Z,101512.69
2022-08-03T08:05:10.925Z,101514.75
2022-08-03T08:07:38.554Z,101510.19
2022-08-03T08:10:06.896Z,101514.00
2022-08-03T08:12:33.705Z,101503.56
2022-08-03T08:15:00.229Z,101514.91
2022-08-03T08:17:27.018Z,101518.94
2022-08-03T08:19:53.807Z,101516.97
2022-08-03T08:22:29.694Z,101517.59
2022-08-03T08:24:56.843Z,101511.41
2022-08-03T08:27:23.603Z,101515.25
2022-08-03T08:29:54.266Z,101520.84
2022-08-03T08:32:23.228Z,101513.38
2022-08-03T08:34:49.884Z,101518.03
2022-08-03T08:37:16.427Z,101518.09
2022-08-03T08:39:42.937Z,101515.34
2022-08-03T08:42:10.248Z,101505.19
2022-08-03T08:44:36.885Z,101510.84
2022-08-03T08:47:04.087Z,101512.38
2022-08-03T08:49:32.931Z,101515.41
2022-08-03T08:52:01.676Z,101514.91
2022-08-03T08:54:32.396Z,101511.03
2022-08-03T08:57:02.723Z,101508.28
2022-08-03T08:59:48.346Z,101509.31
2022-08-03T09:02:16.442Z,101509.16
2022-08-03T09:04:45.493Z,101513.19
2022-08-03T09:07:20.165Z,101511.53
2022-08-03T09:10:07.598Z,101508.44
2022-08-03T09:12:44.895Z,101513.25
2022-08-03T09:15:24.536Z,101518.22
2022-08-03T09:17:56.206Z,101518.22
2022-08-03T09:20:29.514Z,101521.09
2022-08-03T09:22:56.016Z,101507.44
2022-08-03T09:25:29.131Z,101518.34
2022-08-03T09:28:05.284Z,101523.31
2022-08-03T09:30:34.352Z,101522.81
2022-08-03T09:33:08.424Z,101511.47
2022-08-03T09:35:54.446Z,101509.47
2022-08-03T09:38:25.924Z,101512.47
2022-08-03T09:40:58.851Z,101505.19
2022-08-03T09:43:27.484Z,101505.41
2022-08-03T09:46:03.915Z,101506.38
2022-08-03T09:48:31.598Z,101503.41
2022-08-03T09:51:12.865Z,101511.78
2022-08-03T09:53:58.549Z,101515.94
2022-08-03T09:56:38.540Z,101517.53
2022-08-03T09:59:05.152Z,101516.22
2022-08-03T10:01:35.930Z,101518.19
2022-08-03T10:04:04.985Z,101509.94
2022-08-03T10:06:32.029Z,101510.44
2022-08-03T10:09:10.892Z,101513.69
2022-08-03T10:11:41.768Z,101510.56
2022-08-03T10:14:10.936Z,101518.75
2022-08-03T10:16:40.430Z,101512.13
2022-08-03T10:19:08.333Z,101510.97
2022-08-03T10:21:37.770Z,101505.09
2022-08-03T10:24:06.622Z,101500.44
2022-08-03T10:26:35.889Z,101505.75
2022-08-03T10:29:12.894Z,101498.09
2022-08-03T10:31:54.722Z,101498.31
2022-08-03T10:34:26.976Z,101506.28
2022-08-03T10:36:58.730Z,101493.69
2022-08-03T10:39:28.773Z,101491.22
2022-08-03T10:41:58.687Z,101491.97
2022-08-03T10:44:32.560Z,101490.81
2022-08-03T10:46:59.775Z,101487.53
2022-08-03T10:49:34.973Z,101485.22
2022-08-03T10:52:12.867Z,101483.34
2022-08-03T10:55:07.567Z,101473.13
2022-08-03T10:57:58.455Z,101472.47
2022-08-03T11:00:27.835Z,101472.78
2022-08-03T11:03:04.023Z,101470.22
2022-08-03T11:05:33.406Z,101472.34
2022-08-03T11:08:27.989Z,101468.06
2022-08-03T11:11:00.196Z,101460.44
2022-08-03T11:13:30.861Z,101458.47
2022-08-03T11:16:02.244Z,101454.03
2022-08-03T11:18:30.447Z,101460.00
2022-08-03T11:20:59.746Z,101456.25
2022-08-03T11:24:03.321Z,101464.13
2022-08-03T11:26:32.894Z,101459.28
2022-08-03T11:29:29.798Z,101459.31
2022-08-03T11:31:56.522Z,101449.22
2022-08-03T11:34:24.321Z,101450.88
2022-08-03T11:37:20.883Z,101465.66
2022-08-03T11:39:49.434Z,101462.72
2022-08-03T11:42:21.973Z,101462.75
2022-08-03T11:44:50.317Z,101465.97
2022-08-03T11:47:17.926Z,101451.88
2022-08-03T11:49:47.239Z,101461.13
2022-08-03T11:52:14.301Z,101449.47
2022-08-03T11:54:40.889Z,101443.16
2022-08-03T11:57:07.482Z,101447.34
2022-08-03T11:59:34.995Z,101455.34
2022-08-03T12:02:08.041Z,101465.66
2022-08-03T12:04:54.384Z,101454.66
2022-08-03T12:08:02.264Z,101453.84
2022-08-03T12:10:15.539Z,101467.25
2022-08-03T12:12:46.429Z,101457.88
2022-08-03T12:15:13.727Z,101460.09
2022-08-03T12:17:41.407Z,101464.22
2022-08-03T12:20:10.220Z,101453.94
2022-08-03T12:22:38.914Z,101459.75
2022-08-03T12:25:09.936Z,101462.13
2022-08-03T12:27:36.947Z,101447.88
2022-08-03T12:30:04.575Z,101456.22
2022-08-03T12:32:31.373Z,101451.84
2022-08-03T12:35:04.445Z,101456.88
2022-08-03T12:37:31.715Z,101455.94
2022-08-03T12:40:07.954Z,101459.69
2022-08-03T12:42:39.533Z,101463.97
2022-08-03T12:45:28.827Z,101457.88
2022-08-03T12:47:57.956Z,101458.84
2022-08-03T12:50:35.449Z,101452.94
2022-08-03T12:53:04.751Z,101454.28
2022-08-03T12:55:56.388Z,101447.47
2022-08-03T12:58:43.424Z,101450.25
2022-08-03T13:01:10.860Z,101460.72
2022-08-03T13:03:50.260Z,101447.25
2022-08-03T13:06:22.322Z,101442.84
2022-08-03T13:08:49.988Z,101447.41
2022-08-03T13:11:20.542Z,101443.84
2022-08-03T13:13:47.120Z,101441.03
2022-08-03T13:16:18.990Z,101438.41
2022-08-03T13:18:48.957Z,101437.09
2022-08-03T13:21:20.331Z,101442.09
2022-08-03T13:23:47.169Z,101436.66
2022-08-03T13:26:13.780Z,101439.25
2022-08-03T13:28:40.305Z,101438.59
2022-08-03T13:31:07.072Z,101433.09
2022-08-03T13:33:33.785Z,101432.94
2022-08-03T13:36:00.416Z,101430.19
2022-08-03T13:38:27.382Z,101431.66
2022-08-03T13:40:55.115Z,101430.75
2022-08-03T13:43:22.464Z,101431.28
2022-08-03T13:45:52.530Z,101427.28
2022-08-03T13:48:36.782Z,101428.75
2022-08-03T13:51:11.626Z,101436.25
2022-08-03T13:53:50.732Z,101431.19
2022-08-03T13:56:17.231Z,101427.41
2022-08-03T13:58:43.803Z,101437.72
2022-08-03T14:01:10.347Z,101434.41
2022-08-03T14:03:37.043Z,101431.44
2022-08-03T14:06:03.616Z,101429.09
2022-08-03T14:08:30.148Z,101428.75
2022-08-03T14:10:56.667Z,101423.09
2022-08-03T14:13:23.190Z,101424.75
2022-08-03T14:15:51.253Z,101415.09
2022-08-03T14:18:28.305Z,101410.22
2022-08-03T14:21:00.669Z,101407.44
2022-08-03T14:23:32.304Z,101402.09
2022-08-03T14:25:59.446Z,101401.41
2022-08-03T14:28:26.001Z,101398.66
2022-08-03T14:30:53.732Z,101394.50
2022-08-03T14:33:23.127Z,101389.19
2022-08-03T14:35:49.700Z,101383.91
2022-08-03T14:38:16.681Z,101387.91
2022-08-03T14:40:43.326Z,101383.56
2022-08-03T14:43:10.059Z,101382.97
2022-08-03T14:45:36.552Z,101387.75
2022-08-03T14:50:30.563Z,101370.16
2022-08-03T14:50:52.455Z,101377.53
2022-08-03T14:53:19.754Z,101370.59
2022-08-03T14:55:49.783Z,101374.88
2022-08-03T14:58:19.678Z,101371.53
2022-08-03T15:00:49.432Z,101366.22
2022-08-03T15:03:20.267Z,101378.72
2022-08-03T15:05:47.220Z,101366.50
2022-08-03T15:08:13.858Z,101369.03
2022-08-03T15:10:44.758Z,101367.88
2022-08-03T15:13:13.058Z,101361.56
2022-08-03T15:15:40.258Z,101359.69
2022-08-03T15:18:06.828Z,101359.56
2022-08-03T15:20:43.808Z,101361.38
2022-08-03T15:23:12.380Z,101357.41
2022-08-03T15:26:29.083Z,101362.25
2022-08-03T15:28:25.465Z,101349.25
2022-08-03T15:30:52.981Z,101347.66
2022-08-03T15:33:19.826Z,101354.13
2022-08-03T15:35:47.399Z,101343.66
2022-08-03T15:38:13.930Z,101344.16
2022-08-03T15:40:40.458Z,101349.25
2022-08-03T15:43:07.309Z,101343.69
2022-08-03T15:45:36.069Z,101329.19
2022-08-03T15:48:04.614Z,101341.03
2022-08-03T15:50:31.224Z,101329.19
2022-08-03T15:52:57.782Z,101343.66
2022-08-03T15:55:24.391Z,101332.41
2022-08-03T15:59:03.617Z,101334.31
2022-08-03T16:00:37.576Z,101336.94
2022-08-03T16:03:04.424Z,101322.09
2022-08-03T16:05:31.080Z,101316.59
2022-08-03T16:08:03.554Z,101327.06
2022-08-03T16:10:30.831Z,101324.91
2022-08-03T16:12:58.884Z,101317.16
2022-08-03T16:15:25.665Z,101326.50
2022-08-03T16:17:52.276Z,101317.56
2022-08-03T16:20:30.844Z,101328.94
2022-08-03T16:23:10.899Z,101316.03
2022-08-03T16:25:42.012Z,101316.22
2022-08-03T16:28:13.719Z,101314.38
2022-08-03T16:30:42.378Z,101308.25
2022-08-03T16:33:09.668Z,101306.44
2022-08-03T16:35:36.268Z,101299.97
2022-08-03T16:38:09.271Z,101302.00
2022-08-03T16:40:36.574Z,101302.00
2022-08-03T16:43:18.274Z,101310.31
2022-08-03T16:45:47.256Z,101313.16
2022-08-03T16:48:15.064Z,101301.31
2022-08-03T16:50:41.825Z,101298.06
2022-08-03T16:53:09.818Z,101301.34
2022-08-03T16:55:49.065Z,101301.78
2022-08-03T16:58:34.665Z,101295.72
2022-08-03T17:01:24.120Z,101298.88
2022-08-03T17:04:02.700Z,101299.25
2022-08-03T17:06:35.357Z,101288.19
2022-08-03T17:09:11.681Z,101293.53
2022-08-03T17:11:43.979Z,101283.38
2022-08-03T17:14:14.717Z,101288.69
2022-08-03T17:16:53.075Z,101295.28
2022-08-03T17:19:24.836Z,101288.72
2022-08-03T17:21:59.323Z,101292.03
2022-08-03T17:24:32.321Z,101292.03
2022-08-03T17:27:09.031Z,101298.13
2022-08-03T17:29:51.633Z,101294.47
2022-08-03T17:32:21.484Z,101297.28
2022-08-03T17:34:49.137Z,101295.66
2022-08-03T17:37:22.095Z,101297.66
2022-08-03T17:40:03.937Z,101289.09
2022-08-03T17:42:33.029Z,101289.44
2022-08-03T17:45:02.267Z,101293.91
2022-08-03T17:47:41.241Z,101292.25
2022-08-03T17:50:23.439Z,101292.59
2022-08-03T17:53:07.236Z,101293.06
2022-08-03T17:55:55.385Z,101288.91
2022-08-03T17:58:42.172Z,101301.84
2022-08-03T18:02:00.501Z,101298.13
2022-08-03T18:04:32.977Z,101300.91
2022-08-03T18:07:11.694Z,101294.38
2022-08-03T18:10:06.010Z,101298.28
2022-08-03T18:12:28.893Z,101296.59
2022-08-03T18:15:08.718Z,101296.56
2022-08-03T18:17:55.129Z,101304.50
2022-08-03T18:20:34.627Z,101302.09
2022-08-03T18:23:09.256Z,101288.38
2022-08-03T18:25:45.368Z,101298.59
2022-08-03T18:28:18.930Z,101293.25
2022-08-03T18:30:55.314Z,101297.19
2022-08-03T18:34:19.721Z,101304.75
2022-08-03T18:36:21.701Z,101297.50
2022-08-03T18:38:57.244Z,101298.25
2022-08-03T18:41:33.494Z,101296.22
2022-08-03T18:44:08.323Z,101296.34
2022-08-03T18:47:16.352Z,101299.31
2022-08-03T18:50:04.973Z,101298.69
2022-08-03T18:52:45.915Z,101296.25
2022-08-03T18:55:33.230Z,101296.22
2022-08-03T18:58:17.586Z,101301.81
2022-08-03T19:00:58.415Z,101308.97
2022-08-03T19:03:43.242Z,101309.03
2022-08-03T19:06:19.802Z,101312.59
2022-08-03T19:09:00.325Z,101314.59
2022-08-03T19:12:13.154Z,101309.91
2022-08-03T19:14:45.676Z,101316.28
2022-08-03T19:17:13.999Z,101304.34
2022-08-03T19:19:45.268Z,101312.94
2022-08-03T19:22:15.881Z,101316.28
2022-08-03T19:24:45.752Z,101316.97
2022-08-03T19:27:13.015Z,101309.66
2022-08-03T19:30:00.130Z,101324.19
2022-08-03T19:32:32.905Z,101316.38
2022-08-03T19:35:01.497Z,101323.28
2022-08-03T19:37:38.422Z,101326.38
2022-08-03T19:40:10.758Z,101320.28
2022-08-03T19:42:42.494Z,101324.63
2022-08-03T19:45:14.112Z,101321.34
2022-08-03T19:47:56.383Z,101336.72
2022-08-03T19:50:25.013Z,101328.09
2022-08-03T19:52:52.571Z,101335.25
2022-08-03T19:55:19.594Z,101325.75
2022-08-03T19:57:49.068Z,101328.59
2022-08-03T20:00:19.631Z,101332.31
2022-08-03T20:02:47.199Z,101322.13
2022-08-03T20:05:17.576Z,101325.66
2022-08-03T20:07:47.834Z,101317.69
2022-08-03T20:10:17.216Z,101317.47
2022-08-03T20:12:44.308Z,101317.31
2022-08-03T20:15:13.241Z,101318.50
2022-08-03T20:17:54.570Z,101322.84
2022-08-03T20:20:28.126Z,101321.50
2022-08-03T20:22:58.065Z,101328.34
2022-08-03T20:25:37.540Z,101314.06
2022-08-03T20:28:14.193Z,101320.59
2022-08-03T20:30:43.377Z,101322.00
2022-08-03T20:33:10.083Z,101320.97
2022-08-03T20:35:36.805Z,101327.44
2022-08-03T20:38:03.361Z,101314.19
2022-08-03T20:40:29.886Z,101320.41
2022-08-03T20:42:56.421Z,101320.19
2022-08-03T20:46:00.052Z,101318.94
2022-08-03T20:48:11.987Z,101323.78
2022-08-03T20:50:43.576Z,101322.78
2022-08-03T20:53:13.241Z,101326.56
2022-08-03T20:55:47.584Z,101317.28
2022-08-03T20:58:26.882Z,101313.50
2022-08-03T21:00:55.655Z,101319.63
2022-08-03T21:03:22.197Z,101321.34
2022-08-03T21:05:53.639Z,101322.03
2022-08-03T21:08:22.483Z,101318.72
2022-08-03T21:10:52.398Z,101314.56
2022-08-03T21:13:38.465Z,101311.38
2022-08-03T21:16:14.165Z,101303.78
2022-08-03T21:18:51.259Z,101306.59
2022-08-03T21:21:20.409Z,101301.47
2022-08-03T21:23:53.136Z,101302.97
2022-08-03T21:26:23.017Z,101304.84
2022-08-03T21:28:51.521Z,101296.72
2022-08-03T21:31:25.213Z,101292.47
2022-08-03T21:33:59.414Z,101296.28
2022-08-03T21:36:27.675Z,101295.38
2022-08-03T21:38:57.305Z,101282.53
2022-08-03T21:41:26.419Z,101286.09
2022-08-03T21:43:52.932Z,101280.88
2022-08-03T21:46:20.247Z,101283.72
2022-08-03T21:48:50.251Z,101277.88
2022-08-03T21:51:19.257Z,101281.00
2022-08-03T21:54:03.041Z,101286.53
2022-08-03T21:56:41.443Z,101283.72
2022-08-03T21:59:15.335Z,101287.09
2022-08-03T22:01:42.979Z,101284.09
2022-08-03T22:04:11.921Z,101288.91
2022-08-03T22:06:57.685Z,101286.63
2022-08-03T22:09:24.248Z,101283.66
2022-08-03T22:11:53.997Z,101281.19
2022-08-03T22:14:20.678Z,101280.41
2022-08-03T22:16:49.028Z,101278.31
2022-08-03T22:19:15.568Z,101271.78
2022-08-03T22:21:46.786Z,101274.38
2022-08-03T22:24:15.269Z,101269.94
2022-08-03T22:27:02.959Z,101274.38
2022-08-03T22:29:30.731Z,101275.56
2022-08-03T22:31:59.360Z,101276.38
2022-08-03T22:34:27.440Z,101272.19
2022-08-03T22:37:01.389Z,101268.81
2022-08-03T22:39:29.775Z,101269.44
2022-08-03T22:41:58.874Z,101271.63
2022-08-03T22:44:26.851Z,101264.09
2022-08-03T22:46:53.659Z,101267.34
2022-08-03T22:49:20.766Z,101266.03
2022-08-03T22:51:48.271Z,101263.22
2022-08-03T22:54:16.508Z,101266.78
2022-08-03T22:56:47.664Z,101273.34
2022-08-03T22:59:40.633Z,101263.63
2022-08-03T23:02:20.462Z,101264.09
2022-08-03T23:04:56.445Z,101257.66
2022-08-03T23:07:35.457Z,101259.19
2022-08-03T23:10:05.437Z,101262.25
2022-08-03T23:12:35.064Z,101257.22
2022-08-03T23:15:04.740Z,101254.75
2022-08-03T23:17:32.427Z,101251.00
2022-08-03T23:20:09.204Z,101252.75
2022-08-03T23:22:39.060Z,101250.78
2022-08-03T23:25:10.673Z,101252.16
2022-08-03T23:27:42.009Z,101252.28
2022-08-03T23:30:10.049Z,101241.16
2022-08-03T23:32:37.189Z,101245.25
2022-08-03T23:36:29.421Z,101245.03
2022-08-03T23:38:22.397Z,101241.03
2022-08-03T23:40:51.244Z,101232.13
2022-08-03T23:43:51.236Z,101236.72
2022-08-03T23:46:07.753Z,101244.44
2022-08-03T23:48:34.731Z,101240.69
2022-08-03T23:51:13.140Z,101236.09
2022-08-03T23:53:45.375Z,101240.56
2022-08-03T23:56:23.760Z,101235.53
2022-08-03T23:58:52.839Z,101230.25
